createdAt,value
2018-11-23T00:03:57.210Z,91.80
2018-11-23T00:09:06.241Z,91.40
2018-11-23T00:14:08.497Z,93.10
2018-11-23T00:19:10.780Z,94.40
2018-11-23T00:24:12.996Z,96.30
2018-11-23T00:29:15.220Z,99.40
2018-11-23T00:34:17.473Z,99.90
2018-11-23T00:39:19.935Z,99.90
2018-11-23T00:44:22.147Z,97.10
2018-11-23T00:49:24.386Z,94.40
2018-11-23T00:54:26.611Z,91.90
2018-11-23T00:59:28.830Z,90.90
2018-11-23T01:04:31.883Z,91.10
2018-11-23T01:09:34.100Z,91.80
2018-11-23T01:14:36.321Z,92.00
2018-11-23T01:19:38.538Z,90.20
2018-11-23T01:24:40.759Z,90.60
2018-11-23T01:29:42.991Z,91.90
2018-11-23T01:34:45.203Z,90.10
2018-11-23T01:39:47.421Z,90.50
2018-11-23T01:44:50.703Z,90.50
2018-11-23T01:49:52.930Z,89.00
2018-11-23T01:54:55.146Z,95.10
2018-11-23T01:59:57.378Z,98.90
2018-11-23T02:04:59.622Z,97.90
2018-11-23T02:10:01.856Z,95.30
2018-11-23T02:15:05.814Z,92.40
2018-11-23T02:20:09.470Z,91.50
2018-11-23T02:25:11.684Z,90.80
2018-11-23T02:30:21.325Z,90.90
2018-11-23T02:35:23.527Z,90.10
2018-11-23T02:40:25.727Z,88.10
2018-11-23T02:45:27.940Z,92.90
2018-11-23T02:50:30.111Z,97.30
2018-11-23T02:55:32.295Z,99.90
2018-11-23T03:00:34.499Z,99.90
2018-11-23T03:05:36.686Z,96.20
2018-11-23T03:10:38.922Z,92.50
2018-11-23T03:15:41.103Z,92.00
2018-11-23T03:20:44.144Z,93.90
2018-11-23T03:25:46.330Z,94.80
2018-11-23T03:30:48.514Z,94.90
2018-11-23T03:35:50.723Z,95.30
2018-11-23T03:40:52.958Z,93.20
2018-11-23T03:45:55.191Z,95.00
2018-11-23T03:50:57.431Z,96.60
2018-11-23T03:55:59.653Z,95.50
2018-11-23T04:01:01.879Z,93.80
2018-11-23T04:06:04.443Z,93.80
2018-11-23T04:11:06.686Z,92.00
2018-11-23T04:16:08.899Z,92.40
2018-11-23T04:21:11.159Z,93.50
2018-11-23T04:26:13.394Z,92.10
2018-11-23T04:31:15.614Z,92.00
2018-11-23T04:36:17.859Z,90.50
2018-11-23T04:41:20.098Z,90.60
2018-11-23T04:46:22.334Z,90.90
2018-11-23T04:51:24.583Z,91.30
2018-11-23T04:56:26.834Z,90.20
2018-11-23T05:01:29.093Z,90.10
2018-11-23T05:06:31.327Z,90.90
2018-11-23T05:11:33.548Z,90.00
2018-11-23T05:16:35.773Z,90.30
2018-11-23T05:21:38.010Z,90.60
2018-11-23T05:26:40.372Z,90.70
2018-11-23T05:31:42.759Z,91.30
2018-11-23T05:36:45.016Z,92.60
2018-11-23T05:41:47.474Z,92.30
2018-11-23T05:46:49.658Z,92.10
2018-11-23T05:51:51.871Z,91.90
2018-11-23T05:56:54.102Z,92.00
2018-11-23T06:01:56.334Z,90.50
2018-11-23T06:06:58.590Z,89.90
2018-11-23T06:12:00.802Z,90.80
2018-11-23T06:17:03.052Z,89.60
2018-11-23T06:22:05.287Z,91.30
2018-11-23T06:27:07.506Z,92.60
2018-11-23T06:32:21.602Z,91.60
2018-11-23T06:37:23.843Z,91.60
2018-11-23T06:42:26.074Z,89.80
2018-11-23T06:47:28.326Z,90.20
2018-11-23T06:52:30.578Z,90.20
2018-11-23T06:57:32.855Z,89.10
2018-11-23T07:02:35.109Z,90.40
2018-11-23T07:07:37.388Z,94.30
2018-11-23T07:12:39.918Z,90.50
2018-11-23T07:17:42.238Z,90.30
2018-11-23T07:22:44.511Z,89.90
2018-11-23T07:27:46.766Z,89.20
2018-11-23T07:32:49.007Z,88.10
2018-11-23T07:37:51.396Z,88.50
2018-11-23T07:42:54.050Z,88.00
2018-11-23T07:47:56.270Z,88.80
2018-11-23T07:52:58.498Z,90.40
2018-11-23T07:58:00.767Z,86.90
2018-11-23T08:03:03.281Z,82.80
2018-11-23T08:08:05.679Z,80.40
2018-11-23T08:13:07.960Z,73.00
2018-11-23T08:18:10.199Z,70.30
2018-11-23T08:23:12.481Z,72.80
2018-11-23T08:28:14.738Z,74.90
2018-11-23T08:33:17.001Z,78.20
2018-11-23T08:38:19.250Z,76.90
2018-11-23T08:43:21.462Z,67.40
2018-11-23T08:48:23.751Z,63.30
2018-11-23T08:53:30.279Z,62.10
2018-11-23T08:58:32.513Z,60.80
2018-11-23T09:03:34.791Z,59.10
2018-11-23T09:08:37.116Z,57.60
2018-11-23T09:13:40.490Z,57.20
2018-11-23T09:18:42.716Z,56.30
2018-11-23T09:23:44.978Z,57.20
2018-11-23T09:28:47.257Z,55.00
2018-11-23T09:33:49.469Z,54.70
2018-11-23T09:38:52.003Z,52.70
2018-11-23T09:43:54.261Z,53.40
2018-11-23T09:48:56.478Z,52.30
2018-11-23T09:53:58.693Z,52.20
2018-11-23T09:59:00.959Z,51.90
2018-11-23T10:04:03.228Z,50.70
2018-11-23T10:09:06.796Z,50.20
2018-11-23T10:14:09.361Z,50.90
2018-11-23T10:19:18.254Z,51.50
2018-11-23T10:24:20.752Z,53.60
2018-11-23T10:29:23.063Z,55.90
2018-11-23T10:34:25.554Z,56.70
2018-11-23T10:39:28.176Z,58.00
2018-11-23T10:44:30.531Z,57.80
2018-11-23T10:49:32.810Z,58.70
2018-11-23T10:54:35.103Z,60.30
2018-11-23T10:59:37.404Z,62.30
2018-11-23T11:04:45.321Z,61.30
2018-11-23T11:09:47.584Z,62.00
2018-11-23T11:14:49.876Z,62.30
2018-11-23T11:19:52.170Z,62.70
2018-11-23T11:24:54.465Z,61.70
2018-11-23T11:29:57.183Z,63.00
2018-11-23T11:34:59.510Z,62.90
2018-11-23T11:40:01.973Z,63.70
2018-11-23T11:45:06.199Z,63.10
2018-11-23T11:50:09.423Z,64.00
2018-11-23T11:55:13.342Z,64.50
2018-11-23T12:00:17.330Z,64.80
2018-11-23T12:05:19.611Z,63.70
2018-11-23T12:10:23.474Z,64.90
2018-11-23T12:15:25.706Z,64.60
2018-11-23T12:20:27.925Z,64.00
2018-11-23T12:25:30.293Z,63.70
2018-11-23T12:30:32.606Z,63.90
2018-11-23T12:35:34.897Z,63.60
2018-11-23T12:40:37.191Z,62.50
2018-11-23T12:45:39.427Z,62.80
2018-11-23T12:50:41.679Z,62.20
2018-11-23T12:55:43.986Z,62.30
2018-11-23T13:00:46.222Z,60.40
2018-11-23T13:05:48.734Z,59.80
2018-11-23T13:10:58.015Z,59.10
2018-11-23T13:16:00.259Z,59.00
2018-11-23T13:21:02.559Z,59.00
2018-11-23T13:26:05.161Z,58.70
2018-11-23T13:31:07.558Z,58.30
2018-11-23T13:36:10.029Z,58.70
2018-11-23T13:41:12.448Z,58.30
2018-11-23T13:46:14.770Z,58.70
2018-11-23T13:51:17.118Z,58.30
2018-11-23T13:56:19.482Z,58.60
2018-11-23T14:01:21.847Z,58.50
2018-11-23T14:06:24.119Z,58.60
2018-11-23T14:11:26.467Z,59.00
2018-11-23T14:16:28.826Z,59.60
2018-11-23T14:21:31.126Z,59.90
2018-11-23T14:26:33.358Z,60.30
2018-11-23T14:31:35.575Z,61.10
2018-11-23T14:36:37.782Z,62.00
2018-11-23T14:41:40.003Z,63.10
2018-11-23T14:46:42.231Z,63.80
2018-11-23T14:51:44.471Z,64.60
2018-11-23T14:56:46.711Z,66.00
2018-11-23T15:01:52.169Z,66.40
2018-11-23T15:06:51.215Z,67.10
2018-11-23T15:11:53.463Z,68.30
2018-11-23T15:16:55.722Z,69.00
2018-11-23T15:21:57.990Z,69.20
2018-11-23T15:27:00.239Z,70.30
2018-11-23T15:32:02.483Z,70.50
2018-11-23T15:37:05.109Z,71.50
2018-11-23T15:42:07.363Z,72.10
2018-11-23T15:47:09.594Z,74.40
2018-11-23T15:52:11.830Z,73.20
2018-11-23T15:57:14.066Z,74.00
2018-11-23T16:02:16.363Z,74.60
2018-11-23T16:07:18.625Z,75.40
2018-11-23T16:12:20.859Z,75.60
2018-11-23T16:17:23.132Z,76.40
2018-11-23T16:22:25.386Z,77.10
2018-11-23T16:27:27.644Z,78.40
2018-11-23T16:32:29.886Z,79.10
2018-11-23T16:37:32.119Z,79.90
2018-11-23T16:42:34.412Z,80.50
2018-11-23T16:47:36.862Z,81.50
2018-11-23T16:52:39.767Z,82.20
2018-11-23T16:57:43.417Z,82.70
2018-11-23T17:02:45.895Z,82.80
2018-11-23T17:07:48.202Z,83.10
2018-11-23T17:12:57.195Z,83.10
2018-11-23T17:17:59.462Z,83.90
2018-11-23T17:23:02.674Z,83.60
2018-11-23T17:28:06.716Z,83.30
2018-11-23T17:33:09.307Z,84.00
2018-11-23T17:38:11.610Z,84.00
2018-11-23T17:43:13.887Z,84.90
2018-11-23T17:48:16.231Z,85.30
2018-11-23T17:53:18.522Z,86.00
2018-11-23T17:58:20.811Z,86.70
2018-11-23T18:03:23.119Z,86.40
2018-11-23T18:08:25.402Z,87.10
2018-11-23T18:13:27.692Z,87.90
2018-11-23T18:18:30.087Z,88.40
2018-11-23T18:23:32.375Z,89.00
2018-11-23T18:28:34.614Z,89.60
2018-11-23T18:33:36.899Z,89.80
2018-11-23T18:38:39.147Z,89.40
2018-11-23T18:43:41.443Z,89.30
2018-11-23T18:48:43.711Z,87.90
2018-11-23T18:53:45.927Z,87.90
2018-11-23T18:58:48.189Z,88.60
2018-11-23T19:03:50.688Z,90.10
2018-11-23T19:08:53.006Z,91.20
2018-11-23T19:13:55.246Z,91.80
2018-11-23T19:18:57.518Z,92.50
2018-11-23T19:23:59.779Z,93.40
2018-11-23T19:29:02.041Z,93.30
2018-11-23T19:34:04.334Z,93.30
2018-11-23T19:39:07.314Z,93.10
2018-11-23T19:44:09.732Z,92.40
2018-11-23T19:49:11.958Z,93.60
2018-11-23T19:54:14.214Z,93.60
2018-11-23T19:59:16.514Z,94.10
2018-11-23T20:04:18.852Z,93.60
2018-11-23T20:09:21.221Z,94.30
2018-11-23T20:14:23.687Z,94.40
2018-11-23T20:19:25.959Z,94.50
2018-11-23T20:24:28.227Z,94.80
2018-11-23T20:29:30.630Z,94.30
2018-11-23T20:34:32.919Z,94.60
2018-11-23T20:39:35.174Z,93.50
2018-11-23T20:44:37.563Z,93.60
2018-11-23T20:49:45.734Z,93.80
2018-11-23T20:54:42.096Z,94.70
2018-11-23T20:59:44.394Z,93.10
2018-11-23T21:04:46.714Z,94.30
2018-11-23T21:09:48.979Z,94.60
2018-11-23T21:14:51.247Z,94.10
2018-11-23T21:19:53.482Z,94.40
2018-11-23T21:24:55.715Z,94.10
2018-11-23T21:29:57.937Z,94.00
2018-11-23T21:35:00.207Z,94.60
2018-11-23T21:40:02.467Z,94.60
2018-11-23T21:45:06.776Z,94.00
2018-11-23T21:50:10.785Z,94.10
2018-11-23T21:55:18.903Z,94.70
2018-11-23T22:00:21.155Z,94.30
2018-11-23T22:05:23.616Z,93.70
2018-11-23T22:10:25.863Z,93.40
2018-11-23T22:15:28.277Z,93.20
2018-11-23T22:20:30.619Z,93.30
2018-11-23T22:25:32.908Z,93.60
2018-11-23T22:30:35.167Z,93.70
2018-11-23T22:35:37.401Z,94.20
2018-11-23T22:40:39.646Z,93.80
2018-11-23T22:45:41.890Z,94.10
2018-11-23T22:50:44.144Z,94.30
2018-11-23T22:55:46.398Z,95.00
2018-11-23T23:00:48.674Z,94.00
2018-11-23T23:05:50.922Z,94.20
2018-11-23T23:10:53.158Z,94.60
2018-11-23T23:15:55.450Z,95.60
2018-11-23T23:20:57.726Z,95.10
2018-11-23T23:25:59.975Z,94.30
2018-11-23T23:31:02.311Z,93.80
2018-11-23T23:36:04.575Z,93.20
2018-11-23T23:41:06.814Z,93.50
2018-11-23T23:46:09.066Z,95.40
2018-11-23T23:51:11.294Z,95.90
2018-11-23T23:56:13.522Z,93.70
